Latest Weather Observations for North Head

IDN60901

Issued at 1:21 pm EDT Tuesday 10 December 2019 (issued every 10 minutes, with the page automatically refreshed every 10 minutes)

About weather observations | Map of Sydney area stations | Latest observations for Sydney area | Other Formats
Station Details ID: 066197 Name: NORTH HEAD Lat: -33.82 Lon: 151.30 Height: 90.0 m
Data from the previous 72 hours. | See also: Recent months at North Head
Date/Time
EDT
Temp
°C
App
Temp
°C
Dew
Point
°C
Rel
Hum
%
Delta-T
°C
Wind Press
QNH
hPa
Press
MSL
hPa
Rain since
9am
mm
Dir  Spd
km/h
Gust
km/h
Spd
kts
Gust
kts
10/01:00pm - - - - - NE 19 28 10 15 - - -
10/12:30pm - - - - - NE 19 26 10 14 - - -
10/12:00pm - - - - - NE 19 24 10 13 - - -
10/11:30am - - - - - NNE 7 11 4 6 - - -
10/11:00am - - - - - N 7 13 4 7 - - -
10/10:30am - - - - - NNE 9 13 5 7 - - -
10/10:00am - - - - - N 6 11 3 6 - - -
10/09:30am - - - - - NNE 7 13 4 7 - - -
10/09:00am - - - - - NE 6 9 3 5 - - -
10/08:30am - - - - - NW 4 6 2 3 - - -
10/08:00am - - - - - NW 4 7 2 4 - - -
10/07:30am - - - - - NW 6 7 3 4 - - -
10/07:00am - - - - - NW 7 9 4 5 - - -
10/06:30am - - - - - NW 7 9 4 5 - - -
10/06:00am - - - - - NNW 9 9 5 5 - - -
10/05:30am - - - - - N 7 9 4 5 - - -
10/05:00am - - - - - N 7 9 4 5 - - -
10/04:30am - - - - - N 9 13 5 7 - - -
10/04:00am - - - - - N 7 9 4 5 - - -
10/03:30am - - - - - N 6 9 3 5 - - -
10/03:00am - - - - - N 9 11 5 6 - - -
10/02:30am - - - - - N 9 11 5 6 - - -
10/02:00am - - - - - N 9 13 5 7 - - -
10/01:30am - - - - - NNE 13 19 7 10 - - -
10/01:00am - - - - - NNE 15 20 8 11 - - -
10/12:30am - - - - - NNE 17 24 9 13 - - -
10/12:00am - - - - - NNE 20 28 11 15 - - -
 
Date/Time
EDT
Temp
°C
App
Temp
°C
Dew
Point
°C
Rel
Hum
%
Delta-T
°C
Wind Press
QNH
hPa
Press
MSL
hPa
Rain since
9am
mm
Dir  Spd
km/h
Gust
km/h
Spd
kts
Gust
kts
09/11:30pm - - - - - NNE 22 32 12 17 - - -
09/11:00pm - - - - - NNE 20 30 11 16 - - -
09/10:30pm - - - - - NNE 22 33 12 18 - - -
09/10:00pm - - - - - NNE 22 33 12 18 - - -
09/09:30pm - - - - - NNE 24 32 13 17 - - -
09/09:00pm - - - - - NNE 26 37 14 20 - - -
09/08:30pm - - - - - NNE 28 39 15 21 - - -
09/08:00pm - - - - - NE 26 39 14 21 - - -
09/07:30pm - - - - - NNE 26 43 14 23 - - -
09/07:00pm - - - - - NE 28 39 15 21 - - -
09/06:30pm - - - - - NNE 28 43 15 23 - - -
09/06:00pm - - - - - NE 26 43 14 23 - - -
09/05:30pm - - - - - NE 24 41 13 22 - - -
09/05:00pm - - - - - NE 24 35 13 19 - - -
09/04:30pm - - - - - NE 26 41 14 22 - - -
09/04:00pm - - - - - NE 24 39 13 21 - - -
09/03:30pm - - - - - NE 24 37 13 20 - - -
09/03:00pm - - - - - NE 26 43 14 23 - - -
09/02:30pm - - - - - NE 24 37 13 20 - - -
09/02:00pm - - - - - NE 22 35 12 19 - - -
09/01:30pm - - - - - NE 19 32 10 17 - - -
09/01:00pm - - - - - NE 20 33 11 18 - - -
09/12:30pm - - - - - NE 19 28 10 15 - - -
09/12:00pm - - - - - NE 19 32 10 17 - - -
09/11:30am - - - - - NE 17 30 9 16 - - -
09/11:00am - - - - - NE 20 30 11 16 - - -
09/10:30am - - - - - NE 15 30 8 16 - - -
09/10:00am - - - - - NE 17 28 9 15 - - -
09/09:30am - - - - - NE 15 24 8 13 - - -
09/09:00am - - - - - NNE 15 24 8 13 - - -
09/08:30am - - - - - NNE 15 20 8 11 - - -
09/08:00am - - - - - NE 13 22 7 12 - - -
09/07:30am - - - - - NE 13 22 7 12 - - -
09/07:00am - - - - - NE 13 20 7 11 - - -
09/06:30am - - - - - NE 11 20 6 11 - - -
09/06:00am - - - - - NE 11 19 6 10 - - -
09/05:30am - - - - - NE 11 17 6 9 - - -
09/05:00am - - - - - NE 15 20 8 11 - - -
09/04:30am - - - - - ENE 15 20 8 11 - - -
09/04:00am - - - - - NE 13 19 7 10 - - -
09/03:30am - - - - - NE 13 22 7 12 - - -
09/03:00am - - - - - NE 13 20 7 11 - - -
09/02:30am - - - - - NE 15 22 8 12 - - -
09/02:00am - - - - - NE 13 20 7 11 - - -
09/01:30am - - - - - ENE 13 24 7 13 - - -
09/01:00am - - - - - ENE 13 20 7 11 - - -
09/12:30am - - - - - ENE 13 22 7 12 - - -
09/12:00am - - - - - ENE 13 20 7 11 - - -
 
Date/Time
EDT
Temp
°C
App
Temp
°C
Dew
Point
°C
Rel
Hum
%
Delta-T
°C
Wind Press
QNH
hPa
Press
MSL
hPa
Rain since
9am
mm
Dir  Spd
km/h
Gust
km/h
Spd
kts
Gust
kts
08/11:30pm - - - - - NE 15 22 8 12 - - -
08/11:00pm - - - - - NE 17 24 9 13 - - -
08/10:30pm - - - - - ENE 17 28 9 15 - - -
08/10:00pm - - - - - ENE 19 28 10 15 - - -
08/09:30pm - - - - - NE 17 24 9 13 - - -
08/09:00pm - - - - - ENE 15 26 8 14 - - -
08/08:30pm - - - - - ENE 15 26 8 14 - - -
08/08:00pm - - - - - NE 19 28 10 15 - - -
08/07:30pm - - - - - ENE 15 24 8 13 - - -
08/07:00pm - - - - - ENE 17 24 9 13 - - -
08/06:30pm - - - - - ENE 19 30 10 16 - - -
08/06:00pm - - - - - ENE 17 28 9 15 - - -
08/05:30pm - - - - - ENE 15 26 8 14 - - -
08/05:00pm - - - - - ENE 17 30 9 16 - - -
08/04:30pm - - - - - E 19 28 10 15 - - -
08/04:00pm - - - - - E 19 28 10 15 - - -
08/03:30pm - - - - - E 22 33 12 18 - - -
08/03:00pm - - - - - E 19 32 10 17 - - -
08/02:30pm - - - - - E 20 30 11 16 - - -
08/02:00pm - - - - - E 19 30 10 16 - - -
08/01:30pm - - - - - E 20 30 11 16 - - -
08/01:00pm - - - - - ENE 19 26 10 14 - - -
08/12:30pm - - - - - ENE 17 26 9 14 - - -
08/12:00pm - - - - - ENE 17 24 9 13 - - -
08/11:30am - - - - - ENE 15 26 8 14 - - -
08/11:00am - - - - - ENE 15 26 8 14 - - -
08/10:30am - - - - - ENE 15 28 8 15 - - -
08/10:00am - - - - - ENE 17 26 9 14 - - -
08/09:30am - - - - - ENE 17 26 9 14 - - -
08/09:00am - - - - - ENE 17 30 9 16 - - -
08/08:30am - - - - - E 17 26 9 14 - - -
08/08:00am - - - - - ENE 13 26 7 14 - - -
08/07:30am - - - - - ENE 11 19 6 10 - - -
08/07:00am - - - - - ENE 11 20 6 11 - - -
08/06:30am - - - - - E 13 20 7 11 - - -
08/06:00am - - - - - E 11 19 6 10 - - -
08/05:30am - - - - - E 15 24 8 13 - - -
08/05:00am - - - - - E 13 20 7 11 - - -
08/04:30am - - - - - E 13 22 7 12 - - -
08/04:00am - - - - - ESE 15 22 8 12 - - -
08/03:30am - - - - - ESE 15 20 8 11 - - -
08/03:00am - - - - - E 17 24 9 13 - - -
08/02:30am - - - - - ESE 19 26 10 14 - - -
08/02:00am - - - - - ESE 22 32 12 17 - - -
08/01:30am - - - - - ESE 24 32 13 17 - - -
08/01:00am - - - - - ESE 24 33 13 18 - - -
08/12:30am - - - - - ESE 24 32 13 17 - - -
08/12:00am - - - - - ESE 26 39 14 21 - - -
 
Date/Time
EDT
Temp
°C
App
Temp
°C
Dew
Point
°C
Rel
Hum
%
Delta-T
°C
Wind Press
QNH
hPa
Press
MSL
hPa
Rain since
9am
mm
Dir  Spd
km/h
Gust
km/h
Spd
kts
Gust
kts
07/11:30pm - - - - - SE 24 39 13 21 - - -
07/11:00pm - - - - - SE 24 37 13 20 - - -
07/10:30pm - - - - - SE 24 37 13 20 - - -
07/10:00pm - - - - - SE 20 33 11 18 - - -
07/09:30pm - - - - - SSE 17 24 9 13 - - -
07/09:00pm - - - - - SSE 15 22 8 12 - - -
07/08:30pm - - - - - SE 9 15 5 8 - - -
07/08:00pm - - - - - SE 9 13 5 7 - - -
07/07:30pm - - - - - SE 9 13 5 7 - - -
07/07:00pm - - - - - ESE 11 13 6 7 - - -
07/06:30pm - - - - - E 7 11 4 6 - - -
07/06:00pm - - - - - E 9 13 5 7 - - -
07/05:30pm - - - - - ENE 9 15 5 8 - - -
07/05:00pm - - - - - ENE 9 17 5 9 - - -
07/04:30pm - - - - - ENE 11 20 6 11 - - -
07/04:00pm - - - - - ESE 15 20 8 11 - - -
07/03:30pm - - - - - E 15 24 8 13 - - -
07/03:00pm - - - - - E 15 26 8 14 - - -
07/02:30pm - - - - - E 13 22 7 12 - - -
07/02:00pm - - - - - E 15 26 8 14 - - -
07/01:30pm - - - - - ENE 15 24 8 13 - - -

Latest Capital City Observations: Canberra | Sydney | Melbourne | Brisbane | Adelaide | Perth | Hobart | Darwin

Other formats

Comma delimited format used in spreadsheet applications
http://www.bom.gov.au/fwo/IDN60901/IDN60901.95768.axf

JavaScript Object Notation format (JSON) in row-major order
http://www.bom.gov.au/fwo/IDN60901/IDN60901.95768.json

Data quality

Most of these data are generated automatically and are frequently updated. Quality checks on data are not normally performed. It is possible for incorrect values to appear. Refer to information at About Latest Weather Observations and please check the disclaimer before using these data.